Time;durP1;ratioP1;P1;durP2;ratioP2;P2;SDS_P1;SDS_P2;PMS_P1;PMS_P2;Temp;Humidity;BMP_temperature;BMP_pressure;BME280_temperature;BME280_humidity;BME280_pressure;Samples;Min_cycle;Max_cycle;Signal;HPM_P1;HPM_P2
2022/11/14 00:01:53;;;;;;;13.27;10.65;;;;;;;6.50;100.00;101354.50;5033220;28;20441;-70
2022/11/14 00:04:18;;;;;;;16.77;11.45;;;;;;;6.49;100.00;101362.75;5051495;28;20120;-70
2022/11/14 00:06:43;;;;;;;16.08;10.88;;;;;;;6.47;100.00;101354.06;5032703;28;20053;-70
2022/11/14 00:09:08;;;;;;;13.50;10.60;;;;;;;6.47;100.00;101354.06;5031549;28;20445;-69
2022/11/14 00:11:34;;;;;;;13.40;10.65;;;;;;;6.45;100.00;101348.84;5014863;28;20030;-71
2022/11/14 00:13:59;;;;;;;13.10;10.63;;;;;;;6.41;100.00;101352.94;5016157;28;20032;-69
2022/11/14 00:16:24;;;;;;;13.07;10.68;;;;;;;6.41;100.00;101347.56;5026707;28;20090;-70
2022/11/14 00:18:51;;;;;;;13.93;10.65;;;;;;;6.41;100.00;101346.72;5034067;28;20037;-70
2022/11/14 00:21:16;;;;;;;14.30;10.45;;;;;;;6.35;100.00;101342.91;5034647;28;20638;-70
2022/11/14 00:23:42;;;;;;;13.57;10.50;;;;;;;6.35;100.00;101350.97;5036005;28;20279;-70
2022/11/14 00:26:07;;;;;;;12.38;10.32;;;;;;;6.34;100.00;101341.25;5022326;28;20029;-70
2022/11/14 00:28:32;;;;;;;14.05;10.90;;;;;;;6.37;100.00;101347.09;5035699;28;20364;-70
2022/11/14 00:30:57;;;;;;;13.30;10.07;;;;;;;6.31;100.00;101344.28;5026636;28;20080;-70
2022/11/14 00:33:23;;;;;;;13.07;10.77;;;;;;;6.29;100.00;101346.34;5020621;28;20052;-71
2022/11/14 00:35:55;;;;;;;13.68;10.40;;;;;;;6.25;100.00;101342.34;5031419;28;20025;-70
2022/11/14 00:38:21;;;;;;;14.75;10.23;;;;;;;6.23;100.00;101336.34;5023494;28;20033;-70
2022/11/14 00:40:46;;;;;;;15.20;10.52;;;;;;;6.22;100.00;101330.13;5028435;28;20365;-69
2022/11/14 00:43:12;;;;;;;11.98;10.23;;;;;;;6.21;100.00;101329.28;5033241;28;20021;-70
2022/11/14 00:45:37;;;;;;;13.07;9.88;;;;;;;6.23;100.00;101336.34;5029496;28;20033;-69
2022/11/14 00:48:03;;;;;;;11.88;9.68;;;;;;;6.21;100.00;101334.66;5014586;28;20445;-71
2022/11/14 00:50:28;;;;;;;13.35;9.93;;;;;;;6.17;100.00;101333.34;5013987;28;20022;-72
2022/11/14 00:52:53;;;;;;;13.45;9.95;;;;;;;6.15;100.00;101321.13;5014475;28;20109;-71
2022/11/14 00:55:18;;;;;;;13.82;9.65;;;;;;;6.15;100.00;101321.97;5014482;28;20117;-71
2022/11/14 00:57:44;;;;;;;16.67;10.00;;;;;;;6.12;100.00;101316.97;5028084;28;20409;-71
2022/11/14 01:00:12;;;;;;;11.25;9.88;;;;;;;6.08;100.00;101312.97;5024935;28;20056;-70
2022/11/14 01:02:37;;;;;;;12.40;9.55;;;;;;;6.06;100.00;101304.25;5018880;28;20378;-71
2022/11/14 01:05:03;;;;;;;13.55;9.98;;;;;;;6.03;100.00;101305.44;5014930;28;20038;-70
2022/11/14 01:07:28;;;;;;;13.05;10.15;;;;;;;6.03;100.00;101301.94;5027517;28;20107;-70
2022/11/14 01:09:54;;;;;;;15.18;9.60;;;;;;;6.02;100.00;101301.13;5045732;28;20013;-70
2022/11/14 01:12:19;;;;;;;13.55;9.13;;;;;;;6.03;100.00;101299.25;5050115;28;20106;-69
2022/11/14 01:14:44;;;;;;;12.88;9.07;;;;;;;5.98;100.00;101291.75;5029772;28;20097;-71
2022/11/14 01:17:10;;;;;;;13.32;8.65;;;;;;;5.99;100.00;101287.19;5028029;28;20108;-70
2022/11/14 01:19:35;;;;;;;14.32;9.40;;;;;;;5.94;100.00;101285.03;5035465;28;20049;-70
2022/11/14 01:22:01;;;;;;;12.27;9.18;;;;;;;5.96;100.00;101284.84;5033719;28;20024;-71
2022/11/14 01:24:26;;;;;;;12.25;9.05;;;;;;;5.95;100.00;101285.84;5033541;28;20037;-70
2022/11/14 01:26:54;;;;;;;12.93;9.32;;;;;;;5.97;100.00;101282.00;5030794;28;20127;-70
2022/11/14 01:29:20;;;;;;;13.13;8.57;;;;;;;5.93;100.00;101280.66;5032854;28;20013;-71
2022/11/14 01:31:45;;;;;;;12.93;8.93;;;;;;;5.94;100.00;101274.28;5024212;28;20069;-70
2022/11/14 01:34:10;;;;;;;12.93;8.35;;;;;;;5.90;100.00;101272.16;5014899;28;20033;-70
2022/11/14 01:36:35;;;;;;;12.98;8.82;;;;;;;5.89;100.00;101278.53;5018422;28;20030;-70
2022/11/14 01:39:01;;;;;;;16.75;8.75;;;;;;;5.83;100.00;101272.06;5014258;28;20030;-70
2022/11/14 01:41:26;;;;;;;12.27;8.45;;;;;;;5.83;100.00;101264.84;5029728;28;20396;-70
2022/11/14 01:43:51;;;;;;;13.60;9.02;;;;;;;5.78;100.00;101267.25;5023742;28;20032;-70
2022/11/14 01:46:35;;;;;;;12.75;8.80;;;;;;;5.79;100.00;101266.22;5015578;28;20033;-70
2022/11/14 01:49:15;;;;;;;11.38;8.23;;;;;;;5.67;100.00;101267.69;5013060;28;20030;-70
2022/11/14 01:51:45;;;;;;;12.70;8.73;;;;;;;5.61;100.00;101269.22;5014146;28;20096;-71
2022/11/14 01:54:26;;;;;;;12.18;8.60;;;;;;;5.55;100.00;101263.78;5014213;28;20343;-71
2022/11/14 01:56:56;;;;;;;9.85;8.23;;;;;;;5.45;100.00;101264.84;5022971;28;20034;-70
2022/11/14 01:59:26;;;;;;;10.27;8.20;;;;;;;5.46;100.00;101266.50;5020877;28;20033;-70
2022/11/14 02:01:53;;;;;;;11.63;8.15;;;;;;;5.42;100.00;101262.53;5016958;28;20042;-70
2022/11/14 02:04:29;;;;;;;11.55;9.15;;;;;;;5.39;100.00;101252.16;5030628;28;20063;-71
2022/11/14 02:06:59;;;;;;;12.63;8.55;;;;;;;5.41;100.00;101255.50;5022325;28;20034;-71
2022/11/14 02:09:26;;;;;;;12.68;8.40;;;;;;;5.42;100.00;101248.25;5014003;28;20026;-70
2022/11/14 02:11:55;;;;;;;12.05;8.43;;;;;;;5.42;100.00;101246.44;5016448;28;20334;-70
2022/11/14 02:14:21;;;;;;;11.68;8.63;;;;;;;5.42;100.00;101238.38;5021014;28;20052;-70
2022/11/14 02:16:47;;;;;;;12.57;8.95;;;;;;;5.37;100.00;101240.75;5021885;28;20033;-71
2022/11/14 02:19:14;;;;;;;10.73;8.38;;;;;;;5.32;100.00;101235.94;5032437;28;20032;-70
2022/11/14 02:21:39;;;;;;;13.52;8.98;;;;;;;5.34;100.00;101235.75;5022607;28;20465;-70
2022/11/14 02:24:09;;;;;;;10.30;8.00;;;;;;;5.42;100.00;101238.38;5013071;28;20029;-70
2022/11/14 02:26:34;;;;;;;12.70;7.90;;;;;;;5.39;100.00;101235.22;5012873;28;20029;-70
2022/11/14 02:28:59;;;;;;;16.25;9.40;;;;;;;5.35;100.00;101225.88;5024349;28;20356;-70
2022/11/14 02:31:25;;;;;;;11.18;8.43;;;;;;;5.38;100.00;101225.50;5032390;28;20033;-71
2022/11/14 02:33:50;;;;;;;10.23;7.80;;;;;;;5.37;100.00;101221.97;5025450;28;20041;-70
2022/11/14 02:36:15;;;;;;;10.85;8.20;;;;;;;5.34;100.00;101227.69;5012549;28;20172;-70
2022/11/14 02:38:40;;;;;;;10.75;8.05;;;;;;;5.35;100.00;101223.19;5017545;28;20036;-70
2022/11/14 02:41:06;;;;;;;9.63;8.05;;;;;;;5.35;100.00;101229.38;5015174;28;20026;-70
2022/11/14 02:43:31;;;;;;;12.50;8.25;;;;;;;5.28;100.00;101225.75;5026006;28;20032;-70
2022/11/14 02:45:56;;;;;;;11.85;8.48;;;;;;;5.30;100.00;101224.56;5015495;28;20045;-70
2022/11/14 02:48:22;;;;;;;11.48;7.75;;;;;;;5.28;100.00;101221.22;5019125;28;20025;-70
2022/11/14 02:50:48;;;;;;;11.45;7.65;;;;;;;5.29;100.00;101222.88;5013169;28;20030;-71
2022/11/14 02:53:13;;;;;;;10.65;7.90;;;;;;;5.28;100.00;101212.31;5013464;28;20096;-70
2022/11/14 02:55:38;;;;;;;11.95;7.72;;;;;;;5.29;100.00;101212.16;5012376;28;20173;-70
2022/11/14 02:58:03;;;;;;;11.27;8.07;;;;;;;5.25;100.00;101207.31;5027149;28;20158;-70
2022/11/14 03:00:29;;;;;;;10.90;8.15;;;;;;;5.25;100.00;101210.84;5016719;28;20369;-70
2022/11/14 03:02:54;;;;;;;12.60;8.27;;;;;;;5.23;100.00;101204.81;5031047;28;20060;-70
2022/11/14 03:05:20;;;;;;;12.77;8.25;;;;;;;5.15;100.00;101204.91;5030504;28;20029;-70
2022/11/14 03:07:45;;;;;;;9.45;7.65;;;;;;;5.08;100.00;101204.78;5031124;28;20036;-70
2022/11/14 03:10:12;;;;;;;10.50;7.80;;;;;;;5.05;100.00;101202.44;5027495;28;20033;-70
2022/11/14 03:12:38;;;;;;;11.02;8.05;;;;;;;5.07;100.00;101203.13;5031688;28;20040;-70
2022/11/14 03:15:05;;;;;;;13.07;7.53;;;;;;;5.07;100.00;101194.22;5030435;28;21307;-71
2022/11/14 03:17:32;;;;;;;12.70;8.00;;;;;;;5.08;100.00;101194.03;5019412;28;20040;-70
2022/11/14 03:19:58;;;;;;;10.70;8.38;;;;;;;5.03;100.00;101187.53;5013435;28;20052;-71
2022/11/14 03:22:23;;;;;;;12.18;7.93;;;;;;;5.02;100.00;101189.41;5025340;28;20457;-70
2022/11/14 03:24:48;;;;;;;10.85;7.50;;;;;;;5.03;100.00;101191.06;5031065;28;20025;-71
2022/11/14 03:27:13;;;;;;;10.13;7.30;;;;;;;5.02;100.00;101188.59;5019990;28;20033;-70
2022/11/14 03:29:39;;;;;;;12.30;7.40;;;;;;;4.95;100.00;101186.63;5043402;28;20032;-70
2022/11/14 03:32:04;;;;;;;9.98;7.53;;;;;;;4.91;100.00;101184.47;5023503;28;20120;-71
2022/11/14 03:34:29;;;;;;;10.65;7.60;;;;;;;4.91;100.00;101193.34;5026690;28;20034;-70
2022/11/14 03:36:55;;;;;;;10.70;7.78;;;;;;;4.90;100.00;101175.56;5020037;28;20065;-70
2022/11/14 03:39:20;;;;;;;9.68;7.57;;;;;;;4.88;100.00;101176.78;5011551;28;20018;-70
2022/11/14 03:41:46;;;;;;;11.18;7.60;;;;;;;4.87;100.00;101175.94;5013582;28;20033;-71
2022/11/14 03:44:11;;;;;;;10.80;7.30;;;;;;;4.87;100.00;101177.78;5012842;28;20018;-70
2022/11/14 03:46:36;;;;;;;13.70;7.60;;;;;;;4.87;100.00;101185.84;5025580;28;20507;-70
2022/11/14 03:49:02;;;;;;;10.63;7.60;;;;;;;4.86;100.00;101179.66;5013938;28;20041;-70
2022/11/14 03:51:27;;;;;;;10.68;7.35;;;;;;;4.82;100.00;101182.88;5011862;28;20461;-70
2022/11/14 03:53:52;;;;;;;10.25;7.40;;;;;;;4.76;100.00;101182.56;5011998;28;20116;-70
2022/11/14 03:56:18;;;;;;;13.40;8.25;;;;;;;4.77;100.00;101178.88;5016216;28;20029;-70
2022/11/14 03:58:43;;;;;;;13.75;7.40;;;;;;;4.74;100.00;101173.00;5032223;28;20029;-70
2022/11/14 04:01:08;;;;;;;11.15;7.05;;;;;;;4.73;100.00;101174.88;5028629;28;20120;-70
2022/11/14 04:03:34;;;;;;;15.63;7.75;;;;;;;4.72;100.00;101169.69;5030096;28;20457;-70
2022/11/14 04:05:59;;;;;;;14.10;7.70;;;;;;;4.66;100.00;101171.22;5021689;28;20079;-71
2022/11/14 04:08:24;;;;;;;10.60;7.32;;;;;;;4.64;100.00;101164.41;5028593;28;20025;-70
2022/11/14 04:10:49;;;;;;;13.50;7.65;;;;;;;4.62;100.00;101161.91;5033398;28;20033;-70
2022/11/14 04:13:15;;;;;;;12.77;7.45;;;;;;;4.59;100.00;101152.34;5032413;28;20472;-70
2022/11/14 04:15:40;;;;;;;10.52;7.47;;;;;;;4.58;100.00;101155.22;5032196;28;20025;-70
2022/11/14 04:18:05;;;;;;;10.43;7.45;;;;;;;4.59;100.00;101152.34;5032212;28;20108;-71
2022/11/14 04:20:31;;;;;;;10.98;7.43;;;;;;;4.52;100.00;101146.03;5021564;28;20109;-70
2022/11/14 04:22:56;;;;;;;11.88;7.30;;;;;;;4.52;100.00;101155.94;5024163;28;20057;-71
2022/11/14 04:25:21;;;;;;;11.93;7.68;;;;;;;4.51;100.00;101148.88;5013151;28;20116;-70
2022/11/14 04:27:47;;;;;;;11.82;7.40;;;;;;;4.51;100.00;101147.03;5030398;28;20479;-70
2022/11/14 04:30:14;;;;;;;10.90;7.35;;;;;;;4.51;100.00;101146.22;5016145;28;20021;-70
2022/11/14 04:32:39;;;;;;;13.43;7.57;;;;;;;4.53;100.00;101141.50;5025005;28;20049;-70
2022/11/14 04:35:05;;;;;;;10.85;7.53;;;;;;;4.52;100.00;101137.16;5035000;28;20377;-70
2022/11/14 04:37:30;;;;;;;9.95;7.28;;;;;;;4.50;100.00;101137.34;5020165;28;20057;-70
2022/11/14 04:39:59;;;;;;;11.65;8.38;;;;;;;4.46;100.00;101141.38;5013746;28;20128;-70
2022/11/14 04:42:25;;;;;;;12.88;8.02;;;;;;;4.41;100.00;101136.56;5030829;28;20044;-70
2022/11/14 04:44:50;;;;;;;12.65;7.68;;;;;;;4.38;100.00;101133.41;5015544;28;20025;-70
2022/11/14 04:47:15;;;;;;;12.90;7.57;;;;;;;4.38;100.00;101136.91;5023741;28;20412;-70
2022/11/14 04:49:41;;;;;;;11.20;7.38;;;;;;;4.36;100.00;101136.28;5014948;28;20454;-70
2022/11/14 04:52:06;;;;;;;10.45;7.47;;;;;;;4.36;100.00;101130.06;5020689;28;20057;-70
2022/11/14 04:54:31;;;;;;;11.85;7.20;;;;;;;4.29;100.00;101129.94;5016289;28;20347;-70
2022/11/14 04:56:56;;;;;;;11.90;7.55;;;;;;;4.30;100.00;101136.13;5039156;28;20029;-70
2022/11/14 04:59:22;;;;;;;12.20;7.45;;;;;;;4.31;100.00;101129.75;5022314;28;20038;-70
2022/11/14 05:01:47;;;;;;;11.70;7.40;;;;;;;4.30;100.00;101128.91;5027250;28;20401;-70
2022/11/14 05:04:13;;;;;;;11.57;7.35;;;;;;;4.31;100.00;101125.22;5013604;28;20030;-70
2022/11/14 05:06:38;;;;;;;13.65;7.82;;;;;;;4.25;100.00;101126.75;5043943;28;20088;-71
2022/11/14 05:09:03;;;;;;;14.63;7.93;;;;;;;4.23;100.00;101136.00;5045023;28;20037;-70
2022/11/14 05:11:29;;;;;;;12.18;8.32;;;;;;;4.23;100.00;101127.97;5017390;28;20108;-70
2022/11/14 05:13:54;;;;;;;13.27;7.90;;;;;;;4.16;100.00;101125.16;5017543;28;20036;-70
2022/11/14 05:16:19;;;;;;;12.07;7.80;;;;;;;4.19;100.00;101123.97;5034137;28;20037;-71
2022/11/14 05:18:44;;;;;;;13.85;7.32;;;;;;;4.18;100.00;101117.78;5027871;28;20026;-70
2022/11/14 05:21:13;;;;;;;12.55;7.47;;;;;;;4.17;100.00;101112.59;5023774;28;20036;-70
2022/11/14 05:23:38;;;;;;;13.45;8.15;;;;;;;4.14;100.00;101110.28;5022118;28;20136;-70
2022/11/14 05:26:06;;;;;;;11.88;8.20;;;;;;;4.11;100.00;101110.59;5014431;28;20501;-70
2022/11/14 05:28:32;;;;;;;12.02;7.63;;;;;;;4.12;100.00;101101.56;5018036;28;20064;-70
2022/11/14 05:31:09;;;;;;;12.52;8.25;;;;;;;4.14;100.00;101096.88;5034671;28;20052;-71
2022/11/14 05:33:35;;;;;;;13.27;8.00;;;;;;;4.12;100.00;101101.56;5014954;28;20139;-71
2022/11/14 05:36:02;;;;;;;11.88;8.45;;;;;;;4.10;100.00;101095.56;5014364;28;20112;-70
2022/11/14 05:38:27;;;;;;;13.40;7.28;;;;;;;4.10;100.00;101096.38;5032236;28;20029;-70
2022/11/14 05:40:53;;;;;;;15.65;8.18;;;;;;;4.10;100.00;101087.53;5034562;28;20361;-70
2022/11/14 05:43:18;;;;;;;14.73;9.32;;;;;;;4.10;100.00;101090.22;5033486;28;20036;-70
2022/11/14 05:45:43;;;;;;;15.32;8.02;;;;;;;4.05;100.00;101088.88;5033162;28;20464;-70
2022/11/14 05:48:08;;;;;;;14.07;8.10;;;;;;;4.04;100.00;101092.56;5017584;28;20030;-70
2022/11/14 05:50:34;;;;;;;17.30;8.27;;;;;;;4.02;100.00;101091.09;5013029;28;20041;-70
2022/11/14 05:52:59;;;;;;;13.50;8.98;;;;;;;4.04;100.00;101092.56;5025403;28;20036;-71
2022/11/14 05:55:24;;;;;;;10.80;7.70;;;;;;;4.01;100.00;101097.44;5028442;28;20029;-71
2022/11/14 05:57:49;;;;;;;13.45;8.02;;;;;;;4.01;100.00;101095.59;5019851;28;20440;-70
2022/11/14 06:00:15;;;;;;;13.35;8.20;;;;;;;3.98;100.00;101093.28;5021459;28;20461;-70
2022/11/14 06:02:40;;;;;;;12.38;8.10;;;;;;;3.98;100.00;101085.25;5011158;28;20033;-70
2022/11/14 06:05:06;;;;;;;14.07;8.20;;;;;;;3.96;100.00;101084.59;5013507;28;20366;-69
2022/11/14 06:07:31;;;;;;;11.73;7.55;;;;;;;3.96;100.00;101087.28;5020868;28;20021;-70
2022/11/14 06:09:57;;;;;;;13.93;8.00;;;;;;;3.95;100.00;101090.13;5034011;28;20060;-70
2022/11/14 06:12:22;;;;;;;11.27;7.47;;;;;;;3.94;100.00;101086.63;5022282;28;20034;-70
2022/11/14 06:14:47;;;;;;;12.82;7.57;;;;;;;3.95;100.00;101090.13;5025375;28;20060;-70
2022/11/14 06:17:12;;;;;;;15.95;8.30;;;;;;;3.94;100.00;101085.75;5021017;28;20067;-70
2022/11/14 06:19:38;;;;;;;12.20;7.45;;;;;;;3.91;100.00;101089.66;5019570;28;20029;-71
2022/11/14 06:22:03;;;;;;;14.13;8.68;;;;;;;3.90;100.00;101087.97;5018575;28;20404;-70
2022/11/14 06:24:28;;;;;;;15.93;8.20;;;;;;;3.88;100.00;101089.97;5022271;28;20034;-70
2022/11/14 06:26:53;;;;;;;11.85;7.65;;;;;;;3.89;100.00;101097.00;5027925;28;20450;-70
2022/11/14 06:29:19;;;;;;;11.32;7.93;;;;;;;3.86;100.00;101086.66;5033631;28;20022;-70
2022/11/14 06:31:44;;;;;;;12.00;7.75;;;;;;;3.84;100.00;101083.31;5031081;28;20049;-70
2022/11/14 06:34:11;;;;;;;11.40;8.15;;;;;;;3.83;100.00;101084.31;5021611;28;20377;-70
2022/11/14 06:36:37;;;;;;;12.63;8.10;;;;;;;3.80;100.00;101080.13;5012435;28;20034;-70
2022/11/14 06:39:02;;;;;;;14.57;8.65;;;;;;;3.83;100.00;101082.47;5033478;28;20048;-70
2022/11/14 06:41:28;;;;;;;13.60;8.48;;;;;;;3.81;100.00;101083.66;5016236;28;20121;-71
2022/11/14 06:43:53;;;;;;;11.88;8.13;;;;;;;3.86;100.00;101081.28;5030863;28;20528;-70
2022/11/14 06:46:21;;;;;;;14.30;8.43;;;;;;;3.85;100.00;101096.53;5030610;28;20071;-71
2022/11/14 06:48:47;;;;;;;11.77;8.20;;;;;;;3.83;100.00;101084.31;5016378;28;20036;-70
2022/11/14 06:51:14;;;;;;;13.30;8.27;;;;;;;3.85;100.00;101093.00;5012893;28;20528;-70
2022/11/14 06:53:40;;;;;;;13.10;8.18;;;;;;;3.84;100.00;101099.38;5029364;28;20037;-71
2022/11/14 06:56:11;;;;;;;13.35;8.57;;;;;;;3.83;100.00;101100.38;5022363;28;20025;-70
2022/11/14 06:58:40;;;;;;;13.13;7.95;;;;;;;3.76;100.00;101100.25;5013451;28;20124;-70
2022/11/14 07:01:09;;;;;;;12.60;8.02;;;;;;;3.76;100.00;101096.72;5018657;28;20029;-70
2022/11/14 07:03:34;;;;;;;16.77;7.97;;;;;;;3.74;100.00;101102.25;5018470;28;20060;-70
2022/11/14 07:06:00;;;;;;;13.18;8.13;;;;;;;3.77;100.00;101101.09;5026946;28;20053;-70
2022/11/14 07:08:26;;;;;;;13.10;8.15;;;;;;;3.80;100.00;101103.41;5032983;28;20024;-70
2022/11/14 07:10:52;;;;;;;14.85;8.25;;;;;;;3.76;100.00;101102.09;5031503;28;20033;-70
2022/11/14 07:13:17;;;;;;;16.27;8.38;;;;;;;3.79;100.00;101107.94;5015206;28;20053;-70
2022/11/14 07:15:52;;;;;;;13.00;8.60;;;;;;;3.79;100.00;101104.41;5029897;28;20022;-71
2022/11/14 07:18:19;;;;;;;16.80;8.45;;;;;;;3.80;100.00;101111.44;5032758;28;20025;-70
2022/11/14 07:20:45;;;;;;;13.65;8.98;;;;;;;3.77;100.00;101114.47;5015742;28;20037;-70
2022/11/14 07:23:10;;;;;;;14.18;8.77;;;;;;;3.77;100.00;101104.56;5013026;28;20105;-70
2022/11/14 07:25:35;;;;;;;18.00;10.75;;;;;;;3.82;100.00;101110.25;5013077;28;20090;-70
2022/11/14 07:28:01;;;;;;;17.73;12.77;;;;;;;3.82;100.00;101104.06;5012855;28;20030;-71
2022/11/14 07:30:26;;;;;;;18.00;11.23;;;;;;;3.91;100.00;101100.34;5015578;28;20458;-70
2022/11/14 07:32:58;;;;;;;14.02;9.95;;;;;;;3.95;100.00;101098.16;5031901;28;20106;-70
2022/11/14 07:35:24;;;;;;;20.02;11.50;;;;;;;3.95;100.00;101101.66;5031075;28;20057;-71
2022/11/14 07:37:50;;;;;;;14.35;9.88;;;;;;;3.96;100.00;101094.47;5012362;28;20068;-70
2022/11/14 07:40:16;;;;;;;18.48;10.63;;;;;;;3.94;100.00;101089.31;5020816;28;20032;-71
2022/11/14 07:42:41;;;;;;;21.85;11.40;;;;;;;3.99;100.00;101088.78;5019218;28;20408;-70
2022/11/14 07:45:07;;;;;;;16.23;9.60;;;;;;;4.00;100.00;101083.25;5017342;28;20108;-70
2022/11/14 07:47:32;;;;;;;16.17;9.60;;;;;;;4.05;100.00;101083.53;5024300;28;20179;-70
2022/11/14 07:49:58;;;;;;;14.18;8.77;;;;;;;4.11;100.00;101083.81;5032151;28;20045;-71
2022/11/14 07:52:23;;;;;;;13.27;8.27;;;;;;;4.14;100.00;101083.50;5032106;28;20029;-71
2022/11/14 07:54:48;;;;;;;18.38;10.45;;;;;;;4.19;100.00;101092.66;5030848;28;20101;-71
2022/11/14 07:57:14;;;;;;;18.70;10.88;;;;;;;4.19;100.00;101086.47;5029995;28;20076;-71
2022/11/14 07:59:39;;;;;;;19.33;11.02;;;;;;;4.25;100.00;101088.44;5018366;28;20117;-71
2022/11/14 08:02:05;;;;;;;22.85;14.45;;;;;;;4.22;100.00;101075.41;5029375;28;20021;-71
2022/11/14 08:04:30;;;;;;;17.05;9.70;;;;;;;4.26;100.00;101074.03;5020592;28;20021;-71
2022/11/14 08:06:55;;;;;;;14.45;9.88;;;;;;;4.30;100.00;101078.00;5024464;28;20022;-70
2022/11/14 08:09:22;;;;;;;14.00;10.02;;;;;;;4.32;100.00;101070.66;5019905;28;20036;-70
2022/11/14 08:11:47;;;;;;;13.15;9.48;;;;;;;4.37;100.00;101067.44;5020468;28;20462;-71
2022/11/14 08:14:13;;;;;;;18.92;12.07;;;;;;;4.42;100.00;101062.34;5015663;28;20033;-71
2022/11/14 08:16:38;;;;;;;17.75;9.88;;;;;;;4.46;100.00;101062.84;5015973;28;20181;-71
2022/11/14 08:19:04;;;;;;;17.55;9.90;;;;;;;4.52;100.00;101059.44;5027122;28;20095;-71
2022/11/14 08:21:29;;;;;;;16.20;9.25;;;;;;;4.57;100.00;101063.22;5017185;28;20033;-70
2022/11/14 08:23:55;;;;;;;20.42;9.65;;;;;;;4.61;100.00;101043.09;5028466;28;20449;-71
2022/11/14 08:26:20;;;;;;;15.88;9.93;;;;;;;4.65;100.00;101058.81;5036134;28;20026;-70
2022/11/14 08:28:46;;;;;;;12.75;9.50;;;;;;;4.71;100.00;101058.94;5023129;28;20029;-71
2022/11/14 08:31:12;;;;;;;14.55;9.32;;;;;;;4.72;100.00;101057.91;5027639;28;20080;-70
2022/11/14 08:33:38;;;;;;;15.82;9.60;;;;;;;4.78;100.00;101051.81;5018284;28;20022;-70
2022/11/14 08:36:06;;;;;;;17.65;9.10;;;;;;;4.84;100.00;101058.31;5034430;28;20021;-70
2022/11/14 08:38:33;;;;;;;14.27;9.27;;;;;;;4.88;100.00;101053.44;5033558;28;20017;-70
2022/11/14 08:40:59;;;;;;;15.57;9.25;;;;;;;4.92;100.00;101049.34;5027786;28;20034;-71
2022/11/14 08:43:24;;;;;;;18.00;9.27;;;;;;;4.94;100.00;101041.97;5014526;28;20032;-72
2022/11/14 08:45:50;;;;;;;15.00;9.63;;;;;;;4.98;100.00;101037.91;5022867;28;20112;-70
2022/11/14 08:48:15;;;;;;;14.88;9.43;;;;;;;5.04;100.00;101042.56;5025577;28;20021;-71
2022/11/14 08:50:40;;;;;;;24.20;9.50;;;;;;;5.08;100.00;101041.16;5033429;28;20048;-73
2022/11/14 08:53:05;;;;;;;16.05;9.40;;;;;;;5.13;100.00;101038.75;5022827;28;20025;-73
2022/11/14 08:55:31;;;;;;;16.02;10.25;;;;;;;5.17;100.00;101043.75;5015656;28;20492;-73
2022/11/14 08:57:56;;;;;;;12.25;9.32;;;;;;;5.22;100.00;101044.03;5031273;28;20026;-72
2022/11/14 09:00:21;;;;;;;19.95;9.90;;;;;;;5.27;100.00;101047.81;5021446;28;20044;-76
2022/11/14 09:02:47;;;;;;;14.20;9.45;;;;;;;5.31;100.00;101041.06;5024862;28;20025;-72
2022/11/14 09:05:12;;;;;;;15.95;9.15;;;;;;;5.35;100.00;101038.03;5034172;28;20029;-72
2022/11/14 09:07:38;;;;;;;13.52;9.18;;;;;;;5.38;100.00;101035.78;5048555;28;20089;-76
2022/11/14 09:10:04;;;;;;;17.90;8.98;;;;;;;5.44;100.00;101034.22;5057642;28;20033;-73
2022/11/14 09:12:29;;;;;;;15.10;10.02;;;;;;;5.50;100.00;101031.59;5044881;28;20037;-71
2022/11/14 09:14:55;;;;;;;14.23;8.68;;;;;;;5.56;100.00;101032.72;5014912;28;20458;-71
2022/11/14 09:17:20;;;;;;;15.95;8.82;;;;;;;5.61;100.00;101030.28;5021365;28;20052;-76
2022/11/14 09:19:45;;;;;;;13.30;9.68;;;;;;;5.64;100.00;101021.84;5022116;28;20025;-69
2022/11/14 09:22:11;;;;;;;14.23;9.63;;;;;;;5.70;100.00;101016.78;5021165;28;20484;-70
2022/11/14 09:24:36;;;;;;;12.95;9.10;;;;;;;5.76;100.00;101024.06;5015117;28;20029;-71
2022/11/14 09:27:05;;;;;;;14.68;9.88;;;;;;;5.82;100.00;101017.94;5013614;28;20223;-74
2022/11/14 09:29:30;;;;;;;14.52;10.68;;;;;;;5.86;100.00;101014.69;5014535;28;20021;-75
2022/11/14 09:31:56;;;;;;;14.85;9.45;;;;;;;5.93;100.00;101016.59;5013556;28;20091;-70
2022/11/14 09:34:21;;;;;;;14.27;9.80;;;;;;;5.96;100.00;101002.78;5014736;28;20071;-77
2022/11/14 09:36:46;;;;;;;18.00;10.68;;;;;;;6.04;100.00;101010.78;5018761;28;20029;-70
2022/11/14 09:39:12;;;;;;;13.13;10.25;;;;;;;6.08;100.00;101001.28;5014575;28;20449;-71
2022/11/14 09:41:53;;;;;;;13.57;10.55;;;;;;;6.18;100.00;101011.75;5024496;28;20025;-71
2022/11/14 09:44:37;;;;;;;14.23;10.55;;;;;;;6.24;100.00;101002.91;5025896;28;20346;-71
2022/11/14 09:47:11;;;;;;;16.10;10.10;;;;;;;6.31;100.00;100998.44;5033418;28;20021;-70
2022/11/14 09:49:39;;;;;;;16.25;10.90;;;;;;;6.37;100.00;100999.50;5029900;28;20029;-71
2022/11/14 09:52:29;;;;;;;15.32;10.57;;;;;;;6.46;100.00;101005.56;5025201;28;20483;-71
2022/11/14 09:55:16;;;;;;;15.55;9.98;;;;;;;6.52;100.00;101011.00;5029582;28;20029;-71
2022/11/14 09:57:43;;;;;;;15.38;9.98;;;;;;;6.56;100.00;101004.19;5013637;28;20046;-72
2022/11/14 10:00:14;;;;;;;15.30;10.15;;;;;;;6.66;100.00;101019.19;5029498;28;20036;-71
2022/11/14 10:02:54;;;;;;;20.00;11.40;;;;;;;6.72;100.00;101007.66;5032025;28;20036;-71
2022/11/14 10:05:44;;;;;;;17.20;11.25;;;;;;;6.79;100.00;101008.50;5034519;28;20017;-72
2022/11/14 10:08:34;;;;;;;17.88;11.43;;;;;;;6.85;100.00;101010.41;5024315;28;20052;-72
2022/11/14 10:11:08;;;;;;;15.98;10.88;;;;;;;6.87;100.00;101005.69;5033992;28;20060;-71
2022/11/14 10:13:55;;;;;;;16.70;11.05;;;;;;;6.89;100.00;101000.94;5034086;28;20049;-72
2022/11/14 10:16:23;;;;;;;19.95;10.82;;;;;;;6.94;100.00;101011.09;5031267;28;20021;-72
2022/11/14 10:19:07;;;;;;;14.23;10.48;;;;;;;6.99;100.00;101005.97;5013279;28;20096;-71
2022/11/14 10:22:03;;;;;;;15.13;10.80;;;;;;;7.00;100.00;101010.31;5022211;28;20037;-72
2022/11/14 10:24:45;;;;;;;17.98;11.35;;;;;;;7.03;100.00;100998.31;5020191;28;20155;-71
2022/11/14 10:27:34;;;;;;;16.80;10.75;;;;;;;7.10;100.00;101001.91;5029257;28;20469;-70
2022/11/14 10:30:12;;;;;;;20.20;10.95;;;;;;;7.15;100.00;100996.75;5027595;28;20052;-71
2022/11/14 10:32:53;;;;;;;18.20;10.85;;;;;;;7.23;100.00;100993.91;5033527;28;20049;-70
2022/11/14 10:35:25;;;;;;;15.60;10.80;;;;;;;7.28;100.00;100993.28;5034617;28;20350;-71
2022/11/14 10:38:09;;;;;;;20.52;11.07;;;;;;;7.32;100.00;100985.63;5029064;28;20033;-70
2022/11/14 10:40:45;;;;;;;15.18;10.82;;;;;;;7.40;100.00;100988.19;5023161;28;20021;-71
2022/11/14 10:43:37;;;;;;;17.85;11.95;;;;;;;7.43;100.00;100990.47;5017012;28;20032;-72
2022/11/14 10:46:24;;;;;;;15.98;11.20;;;;;;;7.49;100.00;100986.97;5023946;28;20342;-72
2022/11/14 10:48:51;;;;;;;16.88;11.55;;;;;;;7.53;100.00;100984.69;5013700;28;20121;-71
2022/11/14 10:51:23;;;;;;;17.05;11.85;;;;;;;7.60;100.00;100988.25;5013575;28;20071;-70
2022/11/14 10:53:55;;;;;;;13.48;11.20;;;;;;;7.66;100.00;100986.63;5022556;28;20036;-70
2022/11/14 10:56:23;;;;;;;17.55;11.55;;;;;;;7.71;100.00;100984.13;5033185;28;20029;-70
2022/11/14 10:58:48;;;;;;;17.63;11.73;;;;;;;7.78;100.00;100972.34;5031983;28;20051;-70
2022/11/14 11:01:35;;;;;;;18.33;11.50;;;;;;;7.85;100.00;100975.06;5012325;28;20445;-70
2022/11/14 11:06:30;;;;;;;18.92;12.55;;;;;;;7.94;100.00;100967.59;5110445;27;20331;-71
2022/11/14 11:11:40;;;;;;;20.80;12.90;;;;;;;8.02;100.00;100967.41;5074251;28;20035;-71
2022/11/14 11:14:16;;;;;;;17.52;12.05;;;;;;;8.08;100.00;100961.22;5082900;28;20056;-72
2022/11/14 11:16:41;;;;;;;18.30;12.98;;;;;;;8.08;100.00;100957.69;5076700;28;20020;-71
2022/11/14 12:51:05;;;;;;;26.33;18.27;;;;;;;8.52;100.00;100927.41;5111630;27;1217410;-73
2022/11/14 12:53:36;;;;;;;28.42;21.38;;;;;;;8.56;100.00;100921.59;5131133;27;20077;-72